Hovedside
METAR-TAF:

METAR-TAF

Lufthavner :

Flystasjon

Hachinohe, Japan

breddegrad: 40-33N, lengdegrad: 141-28E, høyde over havet: 46 m

Gjeldene værobservasjon

Denne rapporten ble laget for 5 timer og 32 minutter siden, klokken 10:40 UTC
Vind 8 kt fra Vest
Temperatur -1°C
Luftfuktighet 80%
Trykk 1017 hPa
Sikt: 5000 m
Få skyer i en høyde av 2000 ft
Spredte skyer i en høyde av 3000 ft
Brutte skyer i en høyde av 4000 ft
lette snøbyger

METAR: RJSH 041040Z 28008KT 5000 -SHSN FEW020 SCT030 BKN040 M01/M04 Q1017 RMK 1CU020 4CU030 7CU040 A3005

Tid: 01:12 (16:12 UTC)


TAF: fraværende

Værobservasjoner og værvarsel for over 4000 flyplasser (METAR- og TAF-rapporter).

Tilgjengelige stasjoner er representert av de røde og gule prikkene på kartet.

Hold musepekeren over prikken for å se navnet på stasjonen.

Klikk så for å se værobservasjoner og -varsler.

For å forandre kartet kan du klikke på den grønne knappen med svart kryss for å zoome inn, på den grønne knappen med strek for å zoome ut, eller på de grønne pilene for å se tilstøtende kart.


METAR-TAF: